createdAt,value
2017-10-03T00:00:29.898Z,7.82
2017-10-03T00:01:32.411Z,6.40
2017-10-03T00:02:35.714Z,6.60
2017-10-03T00:03:38.232Z,6.35
2017-10-03T00:04:40.759Z,6.72
2017-10-03T00:05:43.265Z,7.10
2017-10-03T00:06:46.187Z,7.10
2017-10-03T00:07:48.654Z,6.30
2017-10-03T00:08:51.263Z,7.90
2017-10-03T00:09:53.891Z,5.18
2017-10-03T00:10:56.664Z,5.35
2017-10-03T00:11:59.171Z,6.40
2017-10-03T00:13:01.656Z,6.72
2017-10-03T00:15:35.727Z,6.60
2017-10-03T00:16:38.387Z,6.18
2017-10-03T00:17:40.886Z,7.35
2017-10-03T00:18:43.547Z,5.65
2017-10-03T01:16:29.063Z,5.22
2017-10-03T01:17:31.715Z,4.47
2017-10-03T01:18:34.237Z,5.45
2017-10-03T01:19:36.849Z,5.30
2017-10-03T01:20:39.626Z,5.55
2017-10-03T01:21:42.263Z,5.70
2017-10-03T01:22:44.757Z,6.55
2017-10-03T01:23:47.783Z,6.22
2017-10-03T01:24:50.360Z,6.10
2017-10-03T01:25:53.041Z,5.47
2017-10-03T01:26:56.475Z,5.90
2017-10-03T01:27:58.968Z,6.45
2017-10-03T01:29:01.489Z,7.12
2017-10-03T01:30:03.988Z,5.97
2017-10-03T01:31:06.605Z,6.82
2017-10-03T01:32:09.850Z,6.10
2017-10-03T01:33:12.378Z,5.93
2017-10-03T01:34:15.914Z,6.90
2017-10-03T01:35:18.398Z,6.18
2017-10-03T01:36:21.707Z,6.15
2017-10-03T01:37:25.000Z,5.57
2017-10-03T01:38:28.237Z,6.82
2017-10-03T01:39:30.748Z,7.12
2017-10-03T01:40:33.287Z,5.90
2017-10-03T01:41:36.548Z,6.87
2017-10-03T01:42:39.068Z,7.65
2017-10-03T01:43:41.612Z,5.93
2017-10-03T01:44:44.863Z,7.43
2017-10-03T01:45:47.332Z,6.93
2017-10-03T01:46:49.876Z,6.65
2017-10-03T01:47:52.377Z,6.07
2017-10-03T01:48:56.671Z,7.20
2017-10-03T01:49:59.947Z,6.47
2017-10-03T01:51:03.343Z,8.00
2017-10-03T01:52:05.874Z,6.47
2017-10-03T01:53:08.384Z,8.18
2017-10-03T01:54:11.698Z,6.60
2017-10-03T01:55:14.317Z,6.60
2017-10-03T01:56:17.754Z,6.75
2017-10-03T01:57:20.303Z,7.05
2017-10-03T01:58:23.562Z,7.12
2017-10-03T01:59:26.844Z,8.68
2017-10-03T02:00:29.403Z,8.82
2017-10-03T02:01:31.955Z,7.30
2017-10-03T02:02:34.433Z,5.25
2017-10-03T02:03:37.153Z,7.80
2017-10-03T02:04:39.634Z,7.72
2017-10-03T02:05:42.330Z,8.10
2017-10-03T02:06:44.956Z,8.13
2017-10-03T02:07:47.685Z,10.40
2017-10-03T02:08:50.296Z,8.02
2017-10-03T02:09:53.032Z,8.15
2017-10-03T02:10:56.403Z,7.95
2017-10-03T02:11:59.862Z,6.70
2017-10-03T02:13:02.344Z,9.10
2017-10-03T02:14:04.901Z,8.05
2017-10-03T02:15:07.437Z,9.70
2017-10-03T02:16:10.249Z,8.82
2017-10-03T02:17:12.740Z,7.90
2017-10-03T02:18:15.303Z,8.70
2017-10-03T02:19:17.800Z,9.23
2017-10-03T02:20:20.619Z,8.55
2017-10-03T02:21:23.171Z,9.55
2017-10-03T02:22:26.123Z,8.13
2017-10-03T02:23:28.623Z,9.40
2017-10-03T02:24:31.288Z,8.25
2017-10-03T02:25:33.810Z,8.52
2017-10-03T02:26:37.260Z,9.95
2017-10-03T02:27:39.735Z,10.77
2017-10-03T02:28:42.271Z,8.20
2017-10-03T02:29:44.863Z,9.63
2017-10-03T02:30:48.200Z,8.90
2017-10-03T02:31:50.762Z,9.18
2017-10-03T02:32:53.587Z,9.25
2017-10-03T02:33:56.095Z,10.48
2017-10-03T02:34:58.592Z,9.68
2017-10-03T02:36:01.227Z,9.25
2017-10-03T02:37:03.773Z,10.40
2017-10-03T02:38:06.272Z,10.00
2017-10-03T02:39:08.771Z,8.95
2017-10-03T02:40:11.322Z,9.35
2017-10-03T02:41:13.838Z,9.43
2017-10-03T02:42:17.134Z,9.65
2017-10-03T02:43:20.488Z,8.75
2017-10-03T02:44:23.586Z,10.80
2017-10-03T02:45:26.910Z,11.02
2017-10-03T02:46:29.390Z,9.60
2017-10-03T02:47:32.227Z,11.05
2017-10-03T02:48:34.700Z,10.57
2017-10-03T02:49:37.536Z,11.52
2017-10-03T02:50:40.003Z,10.13
2017-10-03T02:51:42.603Z,10.63
2017-10-03T02:52:46.098Z,11.95
2017-10-03T02:53:48.819Z,9.82
2017-10-03T02:54:51.304Z,10.18
2017-10-03T02:55:54.777Z,12.75
2017-10-03T02:56:57.284Z,10.88
2017-10-03T02:58:00.158Z,12.30
2017-10-03T02:59:02.739Z,11.38
2017-10-03T03:00:05.467Z,10.70
2017-10-03T03:01:08.786Z,12.43
2017-10-03T03:02:11.399Z,13.05
2017-10-03T03:03:13.879Z,13.38
2017-10-03T03:04:18.282Z,13.10
2017-10-03T03:05:20.787Z,11.88
2017-10-03T03:06:23.668Z,10.65
2017-10-03T03:07:26.227Z,12.40
2017-10-03T03:08:28.957Z,11.18
2017-10-03T03:09:31.580Z,11.20
2017-10-03T03:10:34.283Z,10.52
2017-10-03T03:11:36.766Z,11.38
2017-10-03T03:12:39.326Z,11.38
2017-10-03T03:13:41.816Z,10.77
2017-10-03T03:14:45.250Z,12.43
2017-10-03T03:15:47.993Z,11.80
2017-10-03T03:16:50.663Z,12.35
2017-10-03T03:17:53.134Z,9.50
2017-10-03T03:18:55.923Z,12.45
2017-10-03T03:19:58.434Z,12.80
2017-10-03T03:21:01.877Z,13.20
2017-10-03T03:22:04.366Z,13.40
2017-10-03T03:23:06.946Z,12.77
2017-10-03T03:24:09.422Z,12.27
2017-10-03T03:25:12.941Z,12.10
2017-10-03T03:26:15.422Z,12.30
2017-10-03T03:27:17.959Z,12.57
2017-10-03T03:28:21.353Z,11.70
2017-10-03T03:29:24.883Z,12.37
2017-10-03T03:30:27.425Z,12.80
2017-10-03T03:31:30.973Z,10.88
2017-10-03T03:32:34.223Z,11.90
2017-10-03T03:33:37.157Z,12.10
2017-10-03T03:34:39.878Z,9.90
2017-10-03T03:35:42.653Z,10.98
2017-10-03T03:36:45.284Z,11.70
2017-10-03T03:37:47.987Z,10.35
2017-10-03T03:38:50.591Z,12.13
2017-10-03T03:39:53.921Z,10.77
2017-10-03T03:40:56.403Z,11.65
2017-10-03T03:42:00.281Z,10.57
2017-10-03T03:43:02.823Z,10.68
2017-10-03T03:44:05.519Z,11.55
2017-10-03T03:45:08.018Z,10.77
2017-10-03T03:46:10.504Z,12.80
2017-10-03T03:47:13.758Z,12.82
2017-10-03T03:48:16.535Z,12.15
2017-10-03T03:49:19.141Z,10.40
2017-10-03T03:50:21.857Z,13.68
2017-10-03T03:51:24.349Z,12.27
2017-10-03T03:52:26.887Z,11.05
2017-10-03T03:53:29.393Z,13.43
2017-10-03T03:54:32.858Z,12.00
2017-10-03T03:55:35.387Z,11.32
2017-10-03T03:56:38.449Z,12.18
2017-10-03T03:57:40.921Z,14.10
2017-10-03T03:58:43.580Z,13.82
2017-10-03T03:59:46.088Z,12.77
2017-10-03T04:00:49.024Z,14.02
2017-10-03T04:01:51.504Z,10.80
2017-10-03T04:02:54.258Z,12.93
2017-10-03T04:03:57.518Z,12.80
2017-10-03T04:05:01.075Z,12.40
2017-10-03T04:06:03.576Z,13.48
2017-10-03T04:07:07.031Z,11.98
2017-10-03T04:08:09.515Z,12.90
2017-10-03T04:09:12.996Z,14.27
2017-10-03T04:10:15.517Z,13.88
2017-10-03T04:11:18.336Z,14.57
2017-10-03T04:12:20.876Z,13.25
2017-10-03T04:13:23.717Z,13.93
2017-10-03T04:14:26.291Z,14.20
2017-10-03T04:15:28.991Z,12.57
2017-10-03T04:16:31.593Z,15.60
2017-10-03T04:17:34.351Z,14.73
2017-10-03T04:18:38.466Z,14.18
2017-10-03T04:19:41.817Z,14.40
2017-10-03T04:20:44.337Z,13.13
2017-10-03T04:21:47.190Z,15.73
2017-10-03T04:22:49.793Z,13.62
2017-10-03T04:23:52.531Z,15.70
2017-10-03T04:24:55.071Z,14.40
2017-10-03T04:25:57.835Z,13.35
2017-10-03T04:27:00.351Z,15.00
2017-10-03T04:28:04.159Z,14.30
2017-10-03T04:29:07.400Z,14.07
2017-10-03T04:30:10.977Z,15.45
2017-10-03T04:31:13.497Z,14.80
2017-10-03T04:32:16.325Z,13.62
2017-10-03T04:33:18.837Z,14.63
2017-10-03T04:34:21.654Z,13.80
2017-10-03T04:35:24.159Z,11.52
2017-10-03T04:36:27.627Z,12.85
2017-10-03T04:37:30.123Z,13.43
2017-10-03T04:38:33.561Z,12.43
2017-10-03T04:39:36.038Z,12.55
2017-10-03T04:40:40.586Z,12.50
2017-10-03T04:41:43.865Z,12.50
2017-10-03T04:42:47.729Z,12.50
2017-10-03T04:43:50.249Z,11.68
2017-10-03T04:44:54.807Z,12.50
2017-10-03T04:45:57.300Z,12.82
2017-10-03T04:47:07.190Z,12.27
2017-10-03T04:48:09.790Z,12.50
2017-10-03T04:49:12.295Z,12.70
2017-10-03T04:50:15.866Z,13.10
2017-10-03T04:51:19.806Z,13.07
2017-10-03T04:52:22.357Z,12.95
2017-10-03T04:53:25.063Z,12.80
2017-10-03T04:54:27.569Z,10.90
2017-10-03T04:55:34.719Z,11.60
2017-10-03T04:56:37.280Z,12.25
2017-10-03T04:57:40.082Z,12.90
2017-10-03T04:58:43.479Z,12.90
2017-10-03T04:59:46.944Z,11.40
2017-10-03T05:00:49.436Z,11.98
2017-10-03T05:01:53.011Z,11.45
2017-10-03T05:02:56.278Z,11.77
2017-10-03T05:03:58.965Z,10.40
2017-10-03T05:05:02.289Z,11.20
2017-10-03T05:06:06.048Z,10.18
2017-10-03T05:07:09.363Z,11.15
2017-10-03T05:08:14.179Z,11.93
2017-10-03T05:09:16.673Z,11.10
2017-10-03T05:10:19.496Z,11.70
2017-10-03T05:11:22.775Z,11.52
2017-10-03T05:12:27.271Z,12.80
2017-10-03T05:13:29.761Z,10.23
2017-10-03T05:14:33.276Z,10.15
2017-10-03T05:15:35.823Z,10.65
2017-10-03T05:16:39.223Z,10.10
2017-10-03T05:17:41.735Z,11.30
2017-10-03T05:18:44.223Z,10.05
2017-10-03T05:19:47.843Z,9.15
2017-10-03T05:20:50.876Z,9.25
2017-10-03T05:21:53.446Z,10.55
2017-10-03T05:22:55.919Z,10.05
2017-10-03T05:23:59.412Z,9.82
2017-10-03T05:25:02.742Z,10.48
2017-10-03T05:26:05.331Z,9.18
2017-10-03T05:27:07.923Z,10.18
2017-10-03T05:28:10.689Z,8.75
2017-10-03T05:29:13.165Z,10.90
2017-10-03T05:30:16.648Z,10.80
2017-10-03T05:31:19.126Z,9.18
2017-10-03T05:32:22.848Z,10.00
2017-10-03T05:33:25.324Z,9.65
2017-10-03T05:34:27.927Z,10.55
2017-10-03T05:35:30.458Z,8.82
2017-10-03T05:36:33.297Z,8.02
2017-10-03T05:37:40.960Z,8.82
2017-10-03T05:38:44.766Z,9.50
2017-10-03T05:39:48.089Z,8.80
2017-10-03T05:40:50.764Z,9.48
2017-10-03T05:41:53.262Z,8.80
2017-10-03T05:42:56.086Z,8.75
2017-10-03T05:43:59.355Z,8.68
2017-10-03T05:45:02.620Z,9.00
2017-10-03T05:46:06.116Z,8.50
2017-10-03T05:47:09.908Z,7.90
2017-10-03T05:48:12.390Z,8.38
2017-10-03T05:49:17.045Z,9.80
2017-10-03T05:50:19.535Z,7.53
2017-10-03T05:51:22.478Z,8.68
2017-10-03T05:52:24.954Z,7.00
2017-10-03T05:53:27.690Z,8.45
2017-10-03T05:54:30.963Z,9.48
2017-10-03T05:55:33.714Z,8.15
2017-10-03T05:56:36.188Z,6.53
2017-10-03T05:57:39.002Z,8.40
2017-10-03T05:58:41.519Z,7.40
2017-10-03T05:59:48.718Z,7.15
2017-10-03T06:00:51.979Z,7.15
2017-10-03T06:01:54.723Z,7.62
2017-10-03T06:02:57.278Z,6.43
2017-10-03T06:04:00.720Z,6.55
2017-10-03T06:05:03.218Z,8.85
2017-10-03T06:06:06.648Z,6.55
2017-10-03T06:07:09.290Z,6.95
2017-10-03T06:08:12.037Z,6.75
2017-10-03T06:09:15.342Z,7.07
2017-10-03T06:10:18.228Z,7.20
2017-10-03T06:11:20.725Z,7.47
2017-10-03T06:12:23.351Z,6.82
2017-10-03T06:13:25.921Z,6.93
2017-10-03T06:14:28.660Z,7.47
2017-10-03T06:15:31.390Z,6.72
2017-10-03T06:16:34.951Z,7.18
2017-10-03T06:17:37.427Z,6.43
2017-10-03T06:18:39.958Z,7.03
2017-10-03T06:19:43.224Z,7.25
2017-10-03T06:20:45.944Z,7.25
2017-10-03T06:21:48.427Z,7.28
2017-10-03T06:22:50.965Z,5.90
2017-10-03T06:23:53.582Z,7.05
2017-10-03T06:24:56.370Z,6.35
2017-10-03T06:25:58.917Z,6.28
2017-10-03T06:27:01.692Z,6.47
2017-10-03T06:28:04.175Z,5.62
2017-10-03T06:29:06.670Z,6.53
2017-10-03T06:30:09.204Z,6.55
2017-10-03T06:31:12.321Z,6.03
2017-10-03T06:32:14.895Z,7.22
2017-10-03T06:33:17.609Z,6.15
2017-10-03T06:34:20.100Z,6.87
2017-10-03T06:35:23.652Z,5.47
2017-10-03T06:36:26.139Z,5.72
2017-10-03T06:37:28.791Z,5.75
2017-10-03T06:38:31.326Z,5.95
2017-10-03T06:39:34.915Z,5.43
2017-10-03T06:40:38.351Z,5.15
2017-10-03T06:41:40.866Z,5.10
2017-10-03T06:42:43.358Z,5.05
2017-10-03T06:43:45.849Z,4.75
2017-10-03T06:44:48.359Z,5.37
2017-10-03T06:45:50.985Z,4.12
2017-10-03T06:46:53.528Z,4.50
2017-10-03T06:47:57.560Z,4.68
2017-10-03T06:49:00.082Z,4.32
2017-10-03T06:50:02.772Z,5.50
2017-10-03T06:51:05.293Z,5.15
2017-10-03T06:52:07.910Z,4.07
2017-10-03T06:53:10.420Z,4.72
2017-10-03T06:54:13.241Z,4.25
2017-10-03T06:55:15.734Z,5.43
2017-10-03T06:56:18.370Z,4.60
2017-10-03T06:57:20.893Z,4.20
2017-10-03T06:58:23.543Z,4.22
2017-10-03T06:59:26.861Z,4.37
2017-10-03T07:00:29.458Z,4.22
2017-10-03T07:01:32.024Z,3.35
2017-10-03T07:02:34.571Z,3.70
2017-10-03T07:04:45.702Z,4.25
2017-10-03T07:05:48.194Z,3.37
2017-10-03T07:06:50.701Z,3.92
2017-10-03T07:07:53.326Z,3.67
2017-10-03T07:08:55.839Z,5.18
2017-10-03T07:09:58.364Z,4.22
2017-10-03T07:11:00.859Z,4.37
2017-10-03T07:12:03.412Z,3.80
2017-10-03T07:13:05.952Z,4.10
2017-10-03T07:14:08.464Z,3.30
2017-10-03T07:15:10.974Z,3.60
2017-10-03T07:16:14.221Z,4.43
2017-10-03T07:17:16.766Z,3.25
2017-10-03T07:18:19.244Z,4.55
2017-10-03T07:19:21.758Z,3.95
2017-10-03T07:20:25.060Z,3.65
2017-10-03T07:21:27.670Z,3.85
2017-10-03T07:22:30.174Z,3.22
2017-10-03T07:23:33.445Z,3.83
2017-10-03T07:24:36.720Z,3.40
2017-10-03T07:25:40.641Z,3.92
2017-10-03T07:26:43.927Z,4.22
2017-10-03T07:27:47.203Z,4.07
2017-10-03T07:28:50.504Z,3.15
2017-10-03T07:29:53.982Z,3.50
2017-10-03T07:30:57.439Z,4.25
2017-10-03T07:31:59.969Z,4.72
2017-10-03T07:33:02.478Z,4.25
2017-10-03T07:34:04.988Z,3.83
2017-10-03T07:35:07.464Z,3.80
2017-10-03T07:36:09.994Z,3.25
2017-10-03T07:37:13.332Z,3.83
2017-10-03T07:38:15.853Z,3.85
2017-10-03T07:39:18.758Z,3.67
2017-10-03T07:40:21.273Z,4.03
2017-10-03T07:41:24.715Z,3.90
2017-10-03T07:42:27.219Z,3.67
2017-10-03T07:43:29.756Z,3.42
2017-10-03T07:44:32.500Z,3.72
2017-10-03T07:45:34.999Z,3.85
2017-10-03T07:46:38.646Z,4.85
2017-10-03T07:47:41.245Z,4.20
2017-10-03T07:48:43.753Z,3.33
2017-10-03T07:49:46.250Z,3.40
2017-10-03T07:50:48.815Z,4.12
2017-10-03T07:51:51.492Z,4.30
2017-10-03T07:52:54.154Z,4.05
2017-10-03T07:53:56.661Z,3.53
2017-10-03T07:54:59.154Z,3.50
2017-10-03T07:56:01.644Z,3.87
2017-10-03T07:57:04.143Z,3.62
2017-10-03T07:58:06.792Z,3.80
2017-10-03T07:59:09.303Z,4.22
2017-10-03T08:00:12.852Z,3.30
2017-10-03T08:01:15.366Z,3.47
2017-10-03T08:02:17.839Z,3.30
2017-10-03T08:03:22.137Z,3.15
2017-10-03T08:04:24.654Z,3.72
2017-10-03T08:05:27.142Z,3.42
2017-10-03T08:06:29.748Z,3.30
2017-10-03T08:07:32.358Z,3.62
2017-10-03T08:08:34.912Z,4.15
2017-10-03T08:09:37.446Z,3.97
2017-10-03T08:10:39.986Z,3.80
2017-10-03T08:11:43.650Z,4.55
2017-10-03T08:12:46.903Z,4.18
2017-10-03T08:13:50.404Z,3.80
2017-10-03T08:14:53.704Z,4.10
2017-10-03T08:15:57.190Z,3.33
2017-10-03T08:17:00.488Z,3.70
2017-10-03T08:18:03.780Z,3.55
2017-10-03T08:19:06.305Z,3.85
2017-10-03T08:20:08.792Z,3.85
2017-10-03T08:21:11.346Z,4.37
2017-10-03T08:22:13.847Z,4.37
2017-10-03T08:23:17.097Z,3.75
2017-10-03T08:24:20.027Z,4.80
2017-10-03T08:25:22.704Z,3.65
2017-10-03T08:26:25.264Z,3.95
2017-10-03T08:27:27.799Z,3.40
2017-10-03T08:28:31.209Z,3.60
2017-10-03T08:29:33.796Z,3.33
2017-10-03T08:30:36.343Z,3.75
2017-10-03T08:31:39.423Z,3.80
2017-10-03T08:32:41.924Z,4.20
2017-10-03T08:33:44.470Z,3.00
2017-10-03T08:34:46.987Z,4.00
2017-10-03T08:35:49.522Z,3.40
2017-10-03T08:36:52.012Z,3.85
2017-10-03T08:37:56.676Z,4.30
2017-10-03T08:39:00.601Z,4.18
2017-10-03T08:40:03.096Z,3.72
2017-10-03T08:41:05.638Z,3.53
2017-10-03T08:42:08.798Z,4.82
2017-10-03T08:43:11.399Z,4.00
2017-10-03T08:44:13.931Z,4.05
2017-10-03T08:45:16.477Z,3.25
2017-10-03T08:46:20.663Z,3.58
2017-10-03T08:47:23.221Z,4.45
2017-10-03T08:48:25.926Z,3.45
2017-10-03T08:49:29.307Z,3.60
2017-10-03T08:50:32.619Z,4.12
2017-10-03T08:51:35.152Z,3.85
2017-10-03T08:52:37.696Z,4.22
2017-10-03T08:53:41.046Z,3.70
2017-10-03T08:54:43.551Z,3.45
2017-10-03T08:55:46.639Z,4.25
2017-10-03T08:56:49.464Z,3.40
2017-10-03T08:57:51.993Z,3.15
2017-10-03T08:58:54.519Z,3.20
2017-10-03T08:59:57.013Z,2.95
2017-10-03T09:00:59.560Z,4.03
2017-10-03T09:02:04.270Z,3.33
2017-10-03T09:03:06.767Z,4.45
2017-10-03T09:04:09.276Z,3.58
2017-10-03T09:05:12.819Z,2.90
2017-10-03T09:06:15.349Z,3.62
2017-10-03T09:07:17.959Z,3.85
2017-10-03T09:08:21.231Z,3.75
2017-10-03T09:09:23.723Z,3.25
2017-10-03T09:10:26.992Z,2.83
2017-10-03T09:11:30.615Z,3.03
2017-10-03T09:12:34.383Z,3.10
2017-10-03T09:13:37.715Z,3.95
2017-10-03T09:14:42.314Z,3.05
2017-10-03T09:15:44.931Z,3.12
2017-10-03T09:16:47.456Z,3.30
2017-10-03T09:17:49.947Z,3.40
2017-10-03T09:18:52.582Z,3.45
2017-10-03T09:19:55.094Z,4.90
2017-10-03T09:20:57.807Z,2.78
2017-10-03T09:22:00.327Z,3.05
2017-10-03T09:23:02.887Z,3.00
2017-10-03T09:24:05.488Z,3.90
2017-10-03T09:25:08.810Z,3.33
2017-10-03T09:26:11.296Z,2.80
2017-10-03T09:27:13.784Z,3.12
2017-10-03T09:28:16.315Z,3.60
2017-10-03T09:29:19.525Z,2.95
2017-10-03T09:30:22.060Z,4.05
2017-10-03T09:31:26.547Z,3.40
2017-10-03T09:32:30.368Z,4.50
2017-10-03T09:33:32.889Z,3.50
2017-10-03T09:34:35.476Z,3.78
2017-10-03T09:35:39.985Z,3.30
2017-10-03T09:36:42.597Z,2.65
2017-10-03T09:37:45.081Z,3.17
2017-10-03T09:38:47.582Z,2.97
2017-10-03T09:39:50.840Z,3.25
2017-10-03T09:40:54.559Z,3.75
2017-10-03T09:41:57.817Z,3.92
2017-10-03T09:43:00.340Z,3.22
2017-10-03T09:44:04.809Z,2.90
2017-10-03T09:45:07.327Z,4.03
2017-10-03T09:46:09.881Z,3.35
2017-10-03T09:47:12.408Z,3.33
2017-10-03T09:48:16.039Z,3.80
2017-10-03T09:49:18.725Z,3.65
2017-10-03T09:50:21.246Z,3.00
2017-10-03T09:51:24.525Z,2.72
2017-10-03T09:52:27.808Z,2.97
2017-10-03T09:53:31.119Z,2.70
2017-10-03T09:54:33.630Z,2.47
2017-10-03T09:55:36.163Z,3.33
2017-10-03T09:56:38.655Z,3.35
2017-10-03T09:57:41.202Z,3.08
2017-10-03T09:58:43.699Z,3.20
2017-10-03T09:59:46.211Z,2.50
2017-10-03T10:00:48.747Z,2.80
2017-10-03T10:01:51.282Z,3.00
2017-10-03T10:02:53.796Z,3.20
2017-10-03T10:03:56.317Z,2.75
2017-10-03T10:04:58.928Z,2.83
2017-10-03T10:06:02.600Z,2.55
2017-10-03T10:07:05.121Z,2.70
2017-10-03T10:08:07.615Z,2.42
2017-10-03T10:09:10.160Z,3.10
2017-10-03T10:10:12.680Z,2.72
2017-10-03T10:11:16.227Z,2.20
2017-10-03T10:12:18.981Z,2.85
2017-10-03T10:13:21.508Z,2.62
2017-10-03T10:14:24.079Z,2.90
2017-10-03T10:15:26.620Z,2.45
2017-10-03T10:16:29.185Z,3.53
2017-10-03T10:17:32.802Z,2.62
2017-10-03T10:18:36.062Z,2.42
2017-10-03T10:19:40.092Z,2.50
2017-10-03T10:20:42.641Z,2.45
2017-10-03T10:21:45.246Z,2.30
2017-10-03T10:22:47.740Z,3.62
2017-10-03T10:23:50.780Z,2.50
2017-10-03T10:24:53.292Z,2.83
2017-10-03T10:25:55.826Z,3.50
2017-10-03T10:26:58.845Z,2.78
2017-10-03T10:28:01.420Z,3.05
2017-10-03T10:29:04.701Z,2.47
2017-10-03T10:30:07.235Z,2.58
2017-10-03T10:31:13.775Z,2.35
2017-10-03T10:32:16.301Z,2.72
2017-10-03T10:33:18.832Z,2.85
2017-10-03T10:34:22.327Z,2.90
2017-10-03T10:35:24.862Z,2.53
2017-10-03T10:36:27.397Z,2.47
2017-10-03T10:37:30.670Z,2.67
2017-10-03T10:38:33.210Z,3.03
2017-10-03T10:39:35.864Z,2.15
2017-10-03T10:40:38.380Z,2.72
2017-10-03T10:41:41.706Z,2.08
2017-10-03T10:42:45.308Z,2.97
2017-10-03T10:43:47.814Z,1.87
2017-10-03T10:44:50.391Z,2.53
2017-10-03T10:45:53.681Z,2.97
2017-10-03T10:46:56.961Z,2.95
2017-10-03T10:48:00.294Z,2.67
2017-10-03T10:49:02.938Z,3.03
2017-10-03T10:50:05.447Z,3.05
2017-10-03T10:51:08.010Z,2.60
2017-10-03T10:52:10.523Z,2.45
2017-10-03T10:53:14.820Z,2.45
2017-10-03T10:54:17.323Z,2.70
2017-10-03T10:55:19.976Z,3.15
2017-10-03T10:56:22.462Z,2.17
2017-10-03T10:57:26.293Z,2.75
2017-10-03T10:58:28.808Z,2.95
2017-10-03T10:59:31.342Z,3.20
2017-10-03T11:00:34.660Z,2.20
2017-10-03T11:01:37.210Z,2.80
2017-10-03T11:02:40.486Z,2.15
2017-10-03T11:03:43.779Z,2.75
2017-10-03T11:04:47.041Z,2.58
2017-10-03T11:05:50.563Z,2.47
2017-10-03T11:06:53.231Z,3.42
2017-10-03T11:07:55.865Z,2.20
2017-10-03T11:08:59.427Z,2.67
2017-10-03T11:10:01.983Z,3.00
2017-10-03T11:11:04.474Z,2.30
2017-10-03T11:12:06.996Z,3.22
2017-10-03T11:13:09.524Z,2.35
2017-10-03T11:14:12.810Z,2.90
2017-10-03T11:15:16.079Z,2.90
2017-10-03T11:16:18.566Z,3.25
2017-10-03T11:17:21.834Z,2.58
2017-10-03T11:18:24.877Z,2.22
2017-10-03T11:19:27.417Z,3.58
2017-10-03T11:20:30.974Z,3.00
2017-10-03T11:21:33.717Z,2.47
2017-10-03T11:24:28.966Z,3.35
2017-10-03T11:25:32.270Z,2.58
2017-10-03T11:26:35.876Z,2.45
2017-10-03T11:27:38.533Z,1.92
2017-10-03T11:28:41.059Z,2.45
2017-10-03T11:29:43.647Z,2.33
2017-10-03T11:30:46.964Z,3.00
2017-10-03T11:31:51.313Z,2.62
2017-10-03T11:32:53.827Z,2.40
2017-10-03T11:33:56.454Z,2.17
2017-10-03T11:34:58.991Z,2.10
2017-10-03T11:36:01.599Z,2.72
2017-10-03T11:37:05.094Z,2.37
2017-10-03T11:38:08.908Z,2.37
2017-10-03T11:39:11.426Z,2.30
2017-10-03T11:40:13.915Z,2.35
2017-10-03T11:41:18.089Z,2.80
2017-10-03T11:42:25.677Z,2.42
2017-10-03T11:43:28.693Z,1.85
2017-10-03T11:44:31.275Z,3.15
2017-10-03T11:45:33.836Z,2.10
2017-10-03T11:46:36.383Z,2.50
2017-10-03T11:47:39.765Z,3.00
2017-10-03T11:48:43.042Z,2.97
2017-10-03T11:49:46.313Z,2.62
2017-10-03T11:50:49.847Z,2.60
2017-10-03T11:51:52.341Z,2.25
2017-10-03T11:52:54.882Z,2.53
2017-10-03T11:53:57.424Z,1.92
2017-10-03T11:55:01.249Z,2.37
2017-10-03T11:56:03.918Z,2.20
2017-10-03T11:57:06.506Z,2.20
2017-10-03T11:58:09.161Z,1.80
2017-10-03T11:59:11.639Z,2.50
2017-10-03T12:00:14.247Z,2.12
2017-10-03T12:01:16.860Z,2.10
2017-10-03T12:02:19.420Z,2.40
2017-10-03T12:03:22.664Z,2.95
2017-10-03T12:04:25.944Z,2.10
2017-10-03T12:05:29.972Z,2.25
2017-10-03T12:06:33.263Z,2.85
2017-10-03T12:07:35.841Z,2.65
2017-10-03T12:08:38.510Z,2.05
2017-10-03T12:09:41.129Z,2.70
2017-10-03T12:10:43.615Z,2.30
2017-10-03T12:11:46.907Z,2.40
2017-10-03T12:12:49.565Z,2.58
2017-10-03T12:13:53.084Z,2.70
2017-10-03T12:14:55.806Z,3.45
2017-10-03T12:15:58.340Z,2.65
2017-10-03T12:17:00.942Z,2.95
2017-10-03T12:18:04.347Z,2.53
2017-10-03T12:19:07.604Z,2.50
2017-10-03T12:20:10.142Z,2.20
2017-10-03T12:21:12.693Z,2.40
2017-10-03T12:22:15.263Z,2.50
2017-10-03T12:23:17.786Z,2.15
2017-10-03T12:24:20.400Z,2.70
2017-10-03T12:25:22.913Z,2.53
2017-10-03T12:26:25.438Z,3.20
2017-10-03T12:27:28.089Z,2.22
2017-10-03T12:28:30.581Z,2.00
2017-10-03T12:29:33.619Z,2.65
2017-10-03T12:30:36.199Z,2.25
2017-10-03T12:31:38.734Z,2.47
2017-10-03T12:32:41.334Z,2.90
2017-10-03T12:33:43.858Z,3.00
2017-10-03T12:34:46.357Z,3.03
2017-10-03T12:35:48.871Z,2.85
2017-10-03T12:36:51.373Z,3.20
2017-10-03T12:37:54.657Z,2.62
2017-10-03T12:38:57.918Z,2.65
2017-10-03T12:40:00.401Z,2.72
2017-10-03T12:41:03.717Z,2.70
2017-10-03T12:42:06.357Z,3.20
2017-10-03T12:43:09.631Z,3.10
2017-10-03T12:44:12.143Z,3.15
2017-10-03T12:45:14.643Z,3.58
2017-10-03T12:46:17.139Z,3.05
2017-10-03T12:47:21.433Z,3.25
2017-10-03T12:48:23.966Z,2.80
2017-10-03T12:49:26.465Z,2.95
2017-10-03T12:50:28.967Z,2.80
2017-10-03T12:51:31.536Z,2.92
2017-10-03T12:52:34.091Z,3.25
2017-10-03T12:53:36.633Z,2.75
2017-10-03T12:54:39.487Z,3.08
2017-10-03T12:55:42.772Z,2.95
2017-10-03T12:56:45.270Z,2.90
2017-10-03T12:57:49.189Z,2.83
2017-10-03T12:58:51.707Z,2.75
2017-10-03T12:59:54.244Z,3.10
2017-10-03T13:00:57.135Z,2.80
2017-10-03T13:01:59.973Z,2.60
2017-10-03T13:03:02.670Z,3.00
2017-10-03T13:04:05.618Z,3.12
2017-10-03T13:05:08.425Z,2.70
2017-10-03T13:06:10.917Z,3.35
2017-10-03T13:07:13.415Z,3.30
2017-10-03T13:08:15.906Z,2.85
2017-10-03T13:09:18.422Z,3.08
2017-10-03T13:10:21.692Z,3.05
2017-10-03T13:11:24.350Z,3.08
2017-10-03T13:12:27.611Z,3.10
2017-10-03T13:13:30.203Z,2.67
2017-10-03T13:14:33.638Z,2.90
2017-10-03T13:15:36.134Z,3.20
2017-10-03T13:16:38.649Z,2.53
2017-10-03T13:17:41.916Z,2.75
2017-10-03T13:18:44.423Z,3.03
2017-10-03T13:19:46.943Z,3.05
2017-10-03T13:20:49.461Z,3.55
2017-10-03T13:21:51.967Z,3.28
2017-10-03T13:22:55.220Z,5.97
2017-10-03T13:23:58.862Z,5.68
2017-10-03T13:25:02.144Z,4.10
2017-10-03T13:26:06.487Z,3.90
2017-10-03T13:27:08.992Z,3.00
2017-10-03T13:28:11.610Z,3.15
2017-10-03T13:29:14.169Z,3.45
2017-10-03T13:30:16.817Z,3.60
2017-10-03T13:31:20.069Z,2.80
2017-10-03T13:32:22.640Z,3.80
2017-10-03T13:33:25.962Z,3.90
2017-10-03T13:34:29.343Z,2.60
2017-10-03T13:35:32.606Z,2.70
2017-10-03T13:36:36.105Z,4.85
2017-10-03T13:37:38.662Z,2.30
2017-10-03T13:38:41.188Z,2.37
2017-10-03T13:39:43.741Z,2.50
2017-10-03T13:40:46.232Z,2.72
2017-10-03T13:41:48.772Z,2.53
2017-10-03T13:42:51.426Z,2.95
2017-10-03T13:43:54.734Z,2.67
2017-10-03T13:44:57.233Z,2.30
2017-10-03T13:45:59.758Z,2.80
2017-10-03T13:47:02.266Z,2.40
2017-10-03T13:48:04.789Z,2.35
2017-10-03T13:49:08.504Z,2.67
2017-10-03T13:50:11.000Z,2.80
2017-10-03T13:51:13.524Z,2.45
2017-10-03T13:52:16.054Z,1.90
2017-10-03T13:53:19.356Z,2.65
2017-10-03T13:54:21.954Z,2.80
2017-10-03T13:55:24.476Z,2.70
2017-10-03T13:56:27.884Z,4.03
2017-10-03T13:57:31.451Z,2.85
2017-10-03T13:58:34.753Z,3.15
2017-10-03T13:59:37.349Z,3.28
2017-10-03T14:00:39.858Z,3.65
2017-10-03T14:01:43.106Z,2.60
2017-10-03T14:02:46.399Z,3.40
2017-10-03T14:03:49.949Z,3.28
2017-10-03T14:04:53.656Z,2.90
2017-10-03T14:05:57.013Z,3.20
2017-10-03T14:07:00.185Z,2.80
2017-10-03T14:08:04.475Z,3.87
2017-10-03T14:09:07.142Z,3.37
2017-10-03T14:10:10.648Z,2.37
2017-10-03T14:11:14.004Z,2.70
2017-10-03T14:12:16.565Z,2.15
2017-10-03T14:13:19.119Z,2.75
2017-10-03T14:14:22.653Z,2.55
2017-10-03T14:15:25.938Z,2.20
2017-10-03T14:16:29.344Z,2.47
2017-10-03T14:17:31.846Z,2.42
2017-10-03T14:18:34.385Z,2.28
2017-10-03T14:19:37.047Z,2.22
2017-10-03T14:20:39.559Z,2.45
2017-10-03T14:21:42.143Z,2.05
2017-10-03T14:22:44.655Z,2.00
2017-10-03T14:23:47.138Z,2.20
2017-10-03T14:24:49.648Z,2.40
2017-10-03T14:25:52.911Z,2.33
2017-10-03T14:26:55.404Z,2.33
2017-10-03T14:27:58.676Z,2.62
2017-10-03T14:29:02.150Z,2.08
2017-10-03T14:30:05.501Z,2.12
2017-10-03T14:31:08.062Z,2.05
2017-10-03T14:32:10.592Z,1.85
2017-10-03T14:33:13.105Z,2.42
2017-10-03T14:34:15.850Z,2.20
2017-10-03T14:35:19.904Z,2.65
2017-10-03T14:36:22.638Z,1.90
2017-10-03T14:37:26.173Z,2.05
2017-10-03T14:38:29.703Z,2.12
2017-10-03T14:39:32.287Z,2.80
2017-10-03T14:40:34.804Z,2.25
2017-10-03T14:41:38.387Z,2.80
2017-10-03T14:42:41.014Z,2.28
2017-10-03T14:43:43.567Z,2.90
2017-10-03T14:44:46.108Z,1.80
2017-10-03T14:45:49.412Z,2.62
2017-10-03T14:46:51.980Z,2.53
2017-10-03T14:47:54.571Z,2.00
2017-10-03T14:48:57.103Z,3.58
2017-10-03T14:49:59.610Z,2.65
2017-10-03T14:51:02.255Z,2.30
2017-10-03T14:52:04.834Z,2.50
2017-10-03T14:53:07.709Z,2.95